.
WxDataArchive / Data Records for 2012-10-25
2012-10-24 October 2012 2012-10-26

Data Records for Thursday, 25 October 2012

Time	Temp	Chill	HIndex	Humid	Dewpt	 Wind 	HiWind	WindDir	Rain 	Barom 
-----	----	-----	------	-----	-----	------	------	-------	-----	----- 
00:00	64.0	64.0	64.0	66	52.4	0	0	---	0.00	29.970 
00:05	63.7	63.7	63.7	66	52.1	0	1	248	0.00	29.970 
00:10	63.5	63.5	63.5	67	52.3	0	0	---	0.00	29.970 
00:15	63.2	63.2	63.2	67	52.1	0	0	---	0.00	29.967 
00:20	63.1	63.1	63.1	68	52.4	0	0	---	0.00	29.967 
00:25	62.9	62.9	62.9	69	52.6	0	0	---	0.00	29.967 
00:30	62.7	62.7	62.7	69	52.4	0	0	---	0.00	29.967 
00:35	62.6	62.6	62.6	69	52.3	0	0	---	0.00	29.967 
00:40	62.4	62.4	62.4	70	52.5	0	0	---	0.00	29.967 
00:45	62.3	62.3	62.3	70	52.4	0	0	---	0.00	29.966 
00:50	62.1	62.1	62.1	70	52.2	0	0	---	0.00	29.966 
00:55	61.8	61.8	61.8	71	52.3	0	0	---	0.00	29.966 
01:00	61.6	61.6	61.6	71	52.1	0	0	---	0.00	29.962 
01:05	61.5	61.5	61.5	72	52.4	0	0	---	0.00	29.962 
01:10	61.3	61.3	61.3	72	52.2	0	0	---	0.00	29.962 
01:15	61.2	61.2	61.2	73	52.5	0	0	---	0.00	29.959 
01:20	61.0	61.0	61.0	73	52.3	0	0	---	0.00	29.959 
01:25	61.0	61.0	61.0	73	52.3	0	0	---	0.00	29.959 
01:30	60.9	60.9	60.9	73	52.2	0	1	248	0.00	29.958 
01:35	60.7	60.7	60.7	74	52.4	0	0	---	0.00	29.958 
01:40	60.7	60.7	60.7	74	52.4	0	0	---	0.00	29.958 
01:45	60.5	60.5	60.5	74	52.2	0	0	---	0.00	29.955 
01:50	60.5	60.5	60.5	75	52.5	0	0	---	0.00	29.955 
01:55	60.4	60.4	60.4	75	52.4	0	0	---	0.00	29.955 
02:00	60.2	60.2	60.2	75	52.2	0	0	---	0.00	29.954 
02:05	60.2	60.2	60.2	76	52.6	0	0	---	0.00	29.954 
02:10	60.2	60.2	60.2	76	52.6	0	0	---	0.00	29.954 
02:15	60.2	60.2	60.2	76	52.6	0	1	248	0.00	29.951 
02:20	60.4	60.4	60.4	76	52.8	0	0	---	0.00	29.951 
02:25	60.4	60.4	60.4	76	52.8	0	0	---	0.00	29.951 
02:30	60.4	60.4	60.4	76	52.8	0	0	---	0.00	29.947 
02:35	60.4	60.4	60.4	76	52.8	0	1	248	0.00	29.947 
02:40	60.4	60.4	60.4	76	52.8	0	0	---	0.00	29.947 
02:45	60.4	60.4	60.4	76	52.8	0	0	---	0.00	29.943 
02:50	60.4	60.4	60.4	76	52.8	0	0	---	0.00	29.943 
02:55	60.5	60.5	60.5	76	52.9	0	2	248	0.00	29.943 
03:00	60.7	60.7	60.7	76	53.1	0	0	---	0.00	29.942 
03:05	60.7	60.7	60.7	76	53.1	0	1	248	0.00	29.942 
03:10	60.7	60.7	60.7	75	52.7	0	0	---	0.00	29.942 
03:15	60.7	60.7	60.7	75	52.7	0	0	---	0.00	29.941 
03:20	60.7	60.7	60.7	75	52.7	0	1	248	0.00	29.941 
03:25	60.7	60.7	60.7	75	52.7	0	0	---	0.00	29.941 
03:30	60.7	60.7	60.7	75	52.7	0	1	248	0.00	29.938 
03:35	60.7	60.7	60.7	75	52.7	0	1	248	0.00	29.938 
03:40	60.7	60.7	60.7	75	52.7	0	2	248	0.00	29.938 
03:45	60.7	60.7	60.7	75	52.7	0	1	248	0.00	29.931 
03:50	60.7	60.7	60.7	75	52.7	0	0	---	0.00	29.931 
03:55	60.5	60.5	60.5	76	52.9	0	1	248	0.00	29.931 
04:00	60.5	60.5	60.5	76	52.9	0	1	248	0.00	29.927 
04:05	60.5	60.5	60.5	76	52.9	0	2	248	0.00	29.927 
04:10	60.4	60.4	60.4	76	52.8	0	1	248	0.00	29.927 
04:15	60.4	60.4	60.4	76	52.8	0	1	248	0.00	29.929 
04:20	60.2	60.2	60.2	76	52.6	0	0	---	0.00	29.929 
04:25	60.1	60.1	60.1	76	52.5	0	0	---	0.00	29.929 
04:30	59.9	59.9	59.9	76	52.3	0	0	---	0.00	29.928 
04:35	59.8	59.8	59.8	77	52.6	0	0	---	0.00	29.928 
04:40	59.6	59.6	59.6	77	52.4	0	0	---	0.00	29.928 
04:45	59.5	59.5	59.5	77	52.3	0	0	---	0.00	29.927 
04:50	59.3	59.3	59.3	77	52.1	0	0	---	0.00	29.927 
04:55	59.3	59.3	59.3	77	52.1	0	0	---	0.00	29.927 
05:00	59.2	59.2	59.2	78	52.3	0	0	---	0.00	29.930 
05:05	59.0	59.0	59.0	78	52.1	0	0	---	0.00	29.930 
05:10	58.9	58.9	58.9	78	52.0	0	0	---	0.00	29.930 
05:15	58.7	58.7	58.7	79	52.2	0	0	---	0.00	29.933 
05:20	58.6	58.6	58.6	79	52.1	0	0	---	0.00	29.933 
05:25	58.4	58.4	58.4	79	51.9	0	0	---	0.00	29.933 
05:30	58.3	58.3	58.3	80	52.2	0	0	---	0.00	29.937 
05:35	58.1	58.1	58.1	80	52.0	0	0	---	0.00	29.937 
05:40	58.1	58.1	58.1	80	52.0	0	1	248	0.00	29.937 
05:45	58.1	58.1	58.1	80	52.0	0	0	---	0.00	29.940 
05:50	58.0	58.0	58.0	80	51.9	0	0	---	0.00	29.940 
05:55	57.8	57.8	57.8	80	51.7	0	0	---	0.00	29.940 
06:00	57.5	57.5	57.5	81	51.7	0	0	---	0.00	29.935 
06:05	57.2	57.2	57.2	81	51.4	0	0	---	0.00	29.935 
06:10	56.9	56.9	56.9	82	51.5	0	0	---	0.00	29.935 
06:15	56.9	56.9	56.9	82	51.5	0	0	---	0.00	29.937 
06:20	56.7	56.7	56.7	82	51.3	0	0	---	0.00	29.937 
06:25	56.7	56.7	56.7	83	51.6	0	0	---	0.00	29.937 
06:30	56.7	56.7	56.7	83	51.6	0	0	---	0.00	29.941 
06:35	56.9	56.9	56.9	83	51.8	0	0	---	0.00	29.941 
06:40	56.7	56.7	56.7	82	51.3	0	0	---	0.00	29.941 
06:45	56.6	56.6	56.6	83	51.5	0	0	---	0.00	29.941 
06:50	56.3	56.3	56.3	83	51.2	0	1	248	0.00	29.941 
06:55	56.2	56.2	56.2	84	51.4	0	0	---	0.00	29.941 
07:00	55.9	55.9	55.9	84	51.1	0	0	---	0.00	29.950 
07:05	55.7	55.7	55.7	84	50.9	0	0	---	0.00	29.950 
07:10	55.3	55.3	55.3	85	50.9	0	1	248	0.00	29.950 
07:15	55.1	55.1	55.1	86	51.0	0	1	248	0.00	29.952 
07:20	55.1	55.1	55.1	86	51.0	0	1	248	0.00	29.952 
07:25	55.0	55.0	55.0	86	50.9	0	0	---	0.00	29.952 
07:30	54.7	54.7	54.7	86	50.6	0	0	---	0.00	29.951 
07:35	54.7	54.7	54.7	87	50.9	0	0	---	0.00	29.951 
07:40	54.5	54.5	54.5	87	50.7	0	0	---	0.00	29.951 
07:45	54.2	54.2	54.2	87	50.4	0	0	---	0.00	29.954 
07:50	54.1	54.1	54.1	87	50.3	0	0	---	0.00	29.954 
07:55	53.8	53.8	53.8	87	50.0	0	0	---	0.00	29.954 
08:00	53.5	53.5	53.5	87	49.7	0	0	---	0.00	29.955 
08:05	53.2	53.2	53.2	88	49.7	0	0	---	0.00	29.955 
08:10	53.1	53.1	53.1	88	49.6	0	0	---	0.00	29.955 
08:15	53.1	53.1	53.1	89	49.9	0	0	---	0.00	29.963 
08:20	52.9	52.9	52.9	89	49.7	0	0	---	0.00	29.963 
08:25	52.8	52.8	52.8	89	49.6	0	0	---	0.00	29.963 
08:30	52.8	52.8	52.8	89	49.6	0	0	---	0.00	29.970 
08:35	52.8	52.8	52.8	90	49.9	0	0	---	0.00	29.970 
08:40	52.8	52.8	52.8	90	49.9	0	0	---	0.00	29.970 
08:45	53.1	53.1	53.1	90	50.2	0	0	---	0.00	29.974 
08:50	53.6	53.6	53.6	91	51.0	0	1	225	0.00	29.974 
08:55	54.2	54.2	54.2	90	51.3	0	1	225	0.00	29.974 
09:00	55.1	55.1	55.1	90	52.2	0	2	225	0.00	29.974 
09:05	56.0	56.0	56.0	88	52.5	0	2	225	0.00	29.974 
09:10	56.7	56.7	56.7	86	52.6	0	2	225	0.00	29.974 
09:15	57.6	57.6	57.6	84	52.8	0	1	225	0.00	29.972 
09:20	58.4	58.4	58.4	81	52.6	0	2	225	0.00	29.972 
09:25	59.3	59.3	59.3	80	53.1	0	1	225	0.00	29.972 
09:30	60.1	60.1	60.1	78	53.2	0	2	22	0.00	29.971 
09:35	60.9	60.9	60.9	76	53.3	0	2	270	0.00	29.971 
09:40	61.5	61.5	61.5	75	53.5	0	3	45	0.00	29.971 
09:45	62.1	62.1	62.1	73	53.3	0	3	248	0.00	29.977 
09:50	62.7	62.7	62.7	71	53.2	0	3	0	0.00	29.977 
09:55	63.4	63.4	63.4	70	53.4	0	3	248	0.00	29.977 
10:00	63.9	63.9	63.9	69	53.5	1	4	225	0.00	29.970 
10:05	64.5	64.5	64.5	69	54.1	1	3	45	0.00	29.970 
10:10	64.8	64.8	64.8	68	54.0	1	3	225	0.00	29.970 
10:15	65.3	65.3	65.3	67	54.1	1	3	248	0.00	29.967 
10:20	65.8	65.8	65.8	66	54.1	1	3	248	0.00	29.967 
10:25	66.1	66.1	66.1	66	54.4	0	3	68	0.00	29.967 
10:30	66.6	66.6	66.6	65	54.5	1	2	22	0.00	29.963 
10:35	66.9	66.9	66.9	65	54.7	1	4	112	0.00	29.963 
10:40	67.3	67.3	67.3	65	55.1	0	2	112	0.00	29.963 
10:45	67.8	67.8	67.8	64	55.2	1	4	68	0.00	29.960 
10:50	68.3	68.3	68.3	63	55.2	1	4	68	0.00	29.960 
10:55	68.8	68.8	68.8	63	55.7	1	3	90	0.00	29.960 
11:00	69.1	69.1	69.1	63	56.0	1	3	112	0.00	29.952 
11:05	69.6	69.6	69.6	63	56.4	0	3	112	0.00	29.952 
11:10	69.9	69.9	69.9	62	56.3	2	5	248	0.00	29.952 
11:15	70.3	70.3	70.3	62	56.7	1	10	202	0.00	29.947 
11:20	70.6	70.6	70.6	62	56.9	1	3	202	0.00	29.947 
11:25	70.9	70.9	70.9	63	57.7	2	5	270	0.00	29.947 
11:30	71.1	71.1	71.1	61	57.0	1	4	225	0.00	29.945 
11:35	71.5	71.5	71.5	61	57.3	2	5	248	0.00	29.945 
11:40	71.8	71.8	71.8	62	58.1	1	5	315	0.00	29.945 
11:45	72.0	72.0	72.0	62	58.3	2	7	68	0.00	29.938 
11:50	72.0	72.0	72.0	60	57.3	1	5	248	0.00	29.938 
11:55	72.1	72.1	72.1	60	57.4	2	10	248	0.00	29.938 
12:00	72.3	72.3	72.3	60	57.6	1	4	248	0.00	29.933 
12:05	72.7	72.7	72.7	60	58.0	1	6	248	0.00	29.933 
12:10	73.0	73.0	73.0	58	57.3	2	6	248	0.00	29.933 
12:15	73.2	73.2	73.2	60	58.5	1	6	248	0.00	29.930 
12:20	73.7	73.7	73.7	59	58.5	2	5	248	0.00	29.930 
12:25	73.9	73.9	73.9	58	58.2	2	7	248	0.00	29.930 
12:30	74.0	74.0	74.0	58	58.3	2	6	270	0.00	29.924 
12:35	74.0	74.0	74.0	57	57.8	2	7	248	0.00	29.924 
12:40	74.2	74.2	74.2	57	58.0	2	7	248	0.00	29.924 
12:45	74.2	74.2	74.2	57	58.0	2	7	270	0.00	29.917 
12:50	74.4	74.4	74.4	58	58.6	1	6	22	0.00	29.917 
12:55	74.4	74.4	74.4	56	57.7	2	6	248	0.00	29.917 
13:00	74.4	74.4	74.4	55	57.2	3	9	248	0.00	29.910 
13:05	74.6	74.6	74.6	55	57.3	2	7	270	0.00	29.910 
13:10	74.6	74.6	74.6	54	56.8	3	9	248	0.00	29.910 
13:15	74.7	74.7	74.7	55	57.4	3	13	68	0.00	29.901 
13:20	74.9	74.9	74.9	55	57.6	2	6	248	0.00	29.901 
13:25	74.7	74.7	74.7	53	56.4	2	7	248	0.00	29.901 
13:30	74.9	74.9	74.9	53	56.6	2	10	248	0.00	29.897 
13:35	75.1	75.1	77.6	53	56.8	2	5	248	0.00	29.897 
13:40	75.1	75.1	77.6	52	56.3	3	10	248	0.00	29.897 
13:45	74.9	74.9	74.9	54	57.1	2	7	45	0.00	29.887 
13:50	75.4	75.4	77.8	54	57.6	2	7	248	0.00	29.887 
13:55	75.8	75.8	78.0	52	56.9	3	7	248	0.00	29.887 
14:00	75.8	75.8	78.0	50	55.8	2	6	248	0.00	29.883 
14:05	76.0	76.0	78.1	51	56.5	1	4	248	0.00	29.883 
14:10	76.0	76.0	78.1	50	56.0	2	6	135	0.00	29.883 
14:15	76.0	76.0	78.1	50	56.0	2	6	90	0.00	29.880 
14:20	76.0	76.0	78.1	51	56.5	1	6	112	0.00	29.880 
14:25	76.0	76.0	78.1	51	56.5	2	5	248	0.00	29.880 
14:30	75.8	75.8	78.0	50	55.8	3	11	68	0.00	29.873 
14:35	75.8	75.8	78.0	52	56.9	1	5	292	0.00	29.873 
14:40	75.8	75.8	78.0	50	55.8	2	6	248	0.00	29.873 
14:45	75.8	75.8	78.0	50	55.8	2	10	248	0.00	29.866 
14:50	75.8	75.8	78.0	50	55.8	2	7	248	0.00	29.866 
14:55	75.6	75.6	77.9	49	55.1	4	11	68	0.00	29.866 
15:00	75.6	75.6	77.9	51	56.2	2	9	68	0.00	29.861 
15:05	75.6	75.6	77.9	49	55.1	3	7	90	0.00	29.861 
15:10	75.6	75.6	77.9	51	56.2	2	7	112	0.00	29.861 
15:15	75.6	75.6	77.9	48	54.5	3	9	90	0.00	29.859 
15:20	75.8	75.8	78.0	49	55.3	1	6	270	0.00	29.859 
15:25	76.0	76.0	78.1	49	55.4	2	5	90	0.00	29.859 
15:30	75.8	75.8	77.9	47	54.1	2	6	270	0.00	29.852 
15:35	75.6	75.6	77.9	47	53.9	4	11	90	0.00	29.852 
15:40	75.4	75.4	77.8	49	54.9	2	7	45	0.00	29.852 
15:45	75.4	75.4	77.8	49	54.9	2	6	90	0.00	29.851 
15:50	75.6	75.6	77.9	48	54.5	2	6	248	0.00	29.851 
15:55	76.0	76.0	78.0	48	54.9	2	8	45	0.00	29.851 
16:00	75.6	75.6	77.9	49	55.1	3	7	90	0.00	29.847 
16:05	75.4	75.4	77.8	49	54.9	2	10	90	0.00	29.847 
16:10	75.6	75.6	77.9	47	53.9	3	10	90	0.00	29.847 
16:15	75.6	75.6	77.9	47	53.9	1	6	22	0.00	29.847 
16:20	75.8	75.8	77.9	47	54.1	2	6	270	0.00	29.847 
16:25	75.8	75.8	77.9	46	53.5	2	4	248	0.00	29.847 
16:30	75.8	75.8	77.9	46	53.5	2	6	68	0.00	29.842 
16:35	75.6	75.6	77.9	47	53.9	3	7	112	0.00	29.842 
16:40	75.6	75.6	77.8	46	53.3	3	12	90	0.00	29.842 
16:45	75.4	75.4	77.8	47	53.7	2	10	270	0.00	29.838 
16:50	75.1	75.1	77.7	48	54.1	2	5	90	0.00	29.838 
16:55	74.9	74.9	74.9	48	53.9	2	9	45	0.00	29.838 
17:00	74.9	74.9	74.9	48	53.9	2	6	68	0.00	29.835 
17:05	74.7	74.7	74.7	48	53.7	2	6	270	0.00	29.835 
17:10	74.6	74.6	74.6	47	53.0	3	12	68	0.00	29.835 
17:15	74.4	74.4	74.4	48	53.4	2	5	270	0.00	29.836 
17:20	74.2	74.2	74.2	49	53.8	3	7	68	0.00	29.836 
17:25	73.9	73.9	73.9	49	53.5	2	6	68	0.00	29.836 
17:30	73.7	73.7	73.7	50	53.9	3	13	68	0.00	29.834 
17:35	73.7	73.7	73.7	51	54.4	3	6	68	0.00	29.834 
17:40	73.7	73.7	73.7	51	54.4	2	5	68	0.00	29.834 
17:45	73.9	73.9	73.9	51	54.6	2	6	68	0.00	29.835 
17:50	73.7	73.7	73.7	51	54.4	2	5	68	0.00	29.835 
17:55	73.9	73.9	73.9	51	54.6	3	12	68	0.00	29.835 
18:00	73.9	73.9	73.9	51	54.6	2	6	68	0.00	29.837 
18:05	73.7	73.7	73.7	51	54.4	2	6	68	0.00	29.837 
18:10	73.5	73.5	73.5	52	54.8	3	7	90	0.00	29.837 
18:15	73.3	73.3	73.3	52	54.6	1	3	90	0.00	29.839 
18:20	73.2	73.2	73.2	52	54.5	1	4	90	0.00	29.839 
18:25	73.2	73.2	73.2	52	54.5	2	8	270	0.00	29.839 
18:30	73.0	73.0	73.0	52	54.3	2	7	90	0.00	29.844 
18:35	73.0	73.0	73.0	52	54.3	2	5	68	0.00	29.844 
18:40	72.8	72.8	72.8	53	54.7	1	4	112	0.00	29.844 
18:45	72.7	72.7	72.7	53	54.6	2	6	112	0.00	29.847 
18:50	72.3	72.3	72.3	54	54.7	1	4	45	0.00	29.847 
18:55	72.1	72.1	72.1	54	54.5	1	4	90	0.00	29.847 
19:00	72.0	72.0	72.0	54	54.4	1	5	90	0.00	29.851 
19:05	71.8	71.8	71.8	55	54.7	1	3	270	0.00	29.851 
19:10	71.6	71.6	71.6	54	54.1	1	4	338	0.00	29.851 
19:15	71.3	71.3	71.3	55	54.3	1	3	45	0.00	29.846 
19:20	71.1	71.1	71.1	55	54.1	1	3	90	0.00	29.846 
19:25	70.9	70.9	70.9	55	53.9	0	3	112	0.00	29.846 
19:30	70.8	70.8	70.8	55	53.8	1	4	68	0.00	29.852 
19:35	70.8	70.8	70.8	55	53.8	1	3	90	0.00	29.852 
19:40	70.8	70.8	70.8	55	53.8	1	3	90	0.00	29.852 
19:45	70.8	70.8	70.8	55	53.8	1	3	68	0.00	29.855 
19:50	70.6	70.6	70.6	55	53.6	1	4	90	0.00	29.855 
19:55	70.4	70.4	70.4	55	53.4	0	1	90	0.00	29.855 
20:00	70.1	70.1	70.1	56	53.7	1	4	90	0.00	29.858 
20:05	70.1	70.1	70.1	56	53.7	1	3	90	0.00	29.858 
20:10	69.9	69.9	69.9	56	53.5	0	3	292	0.00	29.858 
20:15	69.8	69.8	69.8	56	53.4	1	5	292	0.00	29.858 
20:20	69.6	69.6	69.6	57	53.7	1	3	68	0.00	29.858 
20:25	69.6	69.6	69.6	57	53.7	1	4	68	0.00	29.858 
20:30	69.4	69.4	69.4	57	53.5	0	3	68	0.00	29.862 
20:35	69.3	69.3	69.3	57	53.4	1	3	68	0.00	29.862 
20:40	69.1	69.1	69.1	58	53.7	1	4	68	0.00	29.862 
20:45	68.9	68.9	68.9	58	53.5	1	2	68	0.00	29.861 
20:50	68.9	68.9	68.9	58	53.5	0	4	112	0.00	29.861 
20:55	68.8	68.8	68.8	58	53.4	0	4	112	0.00	29.861 
21:00	68.6	68.6	68.6	59	53.7	1	5	112	0.00	29.862 
21:05	68.4	68.4	68.4	59	53.5	0	2	112	0.00	29.862 
21:10	68.3	68.3	68.3	60	53.9	1	3	112	0.00	29.862 
21:15	68.1	68.1	68.1	60	53.7	0	2	270	0.00	29.853 
21:20	68.1	68.1	68.1	60	53.7	1	3	270	0.00	29.853 
21:25	68.1	68.1	68.1	60	53.7	1	2	270	0.00	29.853 
21:30	68.1	68.1	68.1	60	53.7	1	2	270	0.00	29.851 
21:35	67.9	67.9	67.9	61	53.9	1	2	270	0.00	29.851 
21:40	68.1	68.1	68.1	60	53.7	1	4	112	0.00	29.851 
21:45	68.1	68.1	68.1	61	54.1	1	5	112	0.00	29.850 
21:50	67.9	67.9	67.9	61	53.9	1	4	90	0.00	29.850 
21:55	67.9	67.9	67.9	61	53.9	1	3	68	0.00	29.850 
22:00	67.8	67.8	67.8	62	54.3	0	3	68	0.00	29.851 
22:05	67.8	67.8	67.8	62	54.3	0	2	68	0.00	29.851 
22:10	67.8	67.8	67.8	62	54.3	1	4	68	0.00	29.851 
22:15	67.9	67.9	67.9	62	54.4	1	3	68	0.00	29.849 
22:20	67.9	67.9	67.9	61	53.9	1	3	270	0.00	29.849 
22:25	67.9	67.9	67.9	61	53.9	1	3	0	0.00	29.849 
22:30	67.9	67.9	67.9	61	53.9	1	4	68	0.00	29.848 
22:35	67.9	67.9	67.9	62	54.4	1	4	68	0.00	29.848 
22:40	67.9	67.9	67.9	61	53.9	1	3	0	0.00	29.848 
22:45	67.9	67.9	67.9	61	53.9	1	4	68	0.00	29.849 
22:50	67.9	67.9	67.9	61	53.9	1	3	90	0.00	29.849 
22:55	67.9	67.9	67.9	62	54.4	0	3	68	0.00	29.849 
23:00	67.9	67.9	67.9	61	53.9	1	3	45	0.00	29.850 
23:05	67.9	67.9	67.9	61	53.9	1	5	270	0.00	29.850 
23:10	67.8	67.8	67.8	62	54.3	0	2	112	0.00	29.850 
23:15	67.6	67.6	67.6	62	54.1	1	3	90	0.00	29.847 
23:20	67.4	67.4	67.4	62	53.9	1	3	22	0.00	29.847 
23:25	67.4	67.4	67.4	62	53.9	0	3	248	0.00	29.847 
23:30	67.4	67.4	67.4	62	53.9	0	2	270	0.00	29.848 
23:35	67.4	67.4	67.4	62	53.9	0	2	0	0.00	29.848 
23:40	67.3	67.3	67.3	62	53.8	1	6	90	0.00	29.848 
23:45	67.4	67.4	67.4	62	53.9	1	4	68	0.00	29.847 
23:50	67.4	67.4	67.4	62	53.9	1	4	68	0.00	29.847 
23:55	67.3	67.3	67.3	62	53.8	0	5	68	0.00	29.847 

CoCoRaHS
IN-AL-39
A2 Web Hosting
Creative Commons License
GoDaddy
search engine by freefind advanced

loaded 2018-11-19 18:44:35 • last modified 2010-11-18 10:43:29
Privacy PolicyDisclaimer
• wx.awcolley.com is powered by PmWiki v.2002016 •
• all content (unless otherwise noted) © 2018 A W Colley